createdAt,value
2023-03-16T00:00:47.738Z,7.45
2023-03-16T00:03:20.532Z,7.47
2023-03-16T00:05:53.366Z,7.48
2023-03-16T00:08:20.524Z,7.56
2023-03-16T00:10:47.867Z,7.43
2023-03-16T00:13:16.293Z,7.23
2023-03-16T00:15:51.118Z,7.16
2023-03-16T00:18:18.079Z,7.16
2023-03-16T00:20:44.635Z,7.19
2023-03-16T00:23:12.031Z,6.77
2023-03-16T00:25:38.488Z,7.13
2023-03-16T00:28:05.025Z,7.17
2023-03-16T00:30:32.796Z,7.14
2023-03-16T00:32:59.611Z,7.08
2023-03-16T00:35:26.243Z,7.05
2023-03-16T00:37:57.315Z,7.07
2023-03-16T00:40:24.407Z,7.07
2023-03-16T00:42:50.945Z,7.11
2023-03-16T00:45:17.659Z,7.02
2023-03-16T00:47:44.262Z,7.06
2023-03-16T00:50:11.898Z,7.04
2023-03-16T00:52:38.489Z,7.19
2023-03-16T00:55:05.396Z,7.10
2023-03-16T00:57:31.946Z,6.98
2023-03-16T00:59:59.341Z,6.99
2023-03-16T01:02:25.806Z,7.01
2023-03-16T01:04:54.863Z,6.85
2023-03-16T01:07:22.150Z,6.71
2023-03-16T01:09:48.780Z,6.61
2023-03-16T01:12:17.537Z,6.56
2023-03-16T01:14:46.029Z,6.55
2023-03-16T01:17:14.259Z,6.53
2023-03-16T01:19:42.015Z,6.61
2023-03-16T01:22:10.066Z,6.54
2023-03-16T01:24:37.268Z,6.48
2023-03-16T01:27:04.611Z,6.47
2023-03-16T01:29:31.690Z,6.45
2023-03-16T01:31:58.190Z,6.38
2023-03-16T01:34:24.807Z,6.34
2023-03-16T01:36:51.722Z,6.41
2023-03-16T01:39:18.572Z,6.32
2023-03-16T01:41:46.796Z,6.48
2023-03-16T01:44:16.667Z,6.43
2023-03-16T01:46:44.382Z,6.43
2023-03-16T01:49:20.744Z,6.36
2023-03-16T01:51:53.113Z,6.42
2023-03-16T01:54:35.041Z,6.39
2023-03-16T01:57:10.031Z,6.30
2023-03-16T01:59:43.035Z,6.28
2023-03-16T02:02:13.662Z,6.18
2023-03-16T02:04:46.836Z,6.09
2023-03-16T02:07:17.139Z,5.97
2023-03-16T02:09:46.642Z,5.95
2023-03-16T02:12:18.548Z,5.92
2023-03-16T02:14:49.946Z,6.02
2023-03-16T02:17:23.540Z,5.78
2023-03-16T02:20:19.884Z,5.95
2023-03-16T02:22:48.935Z,6.00
2023-03-16T02:25:18.197Z,6.13
2023-03-16T02:28:19.938Z,6.09
2023-03-16T02:30:47.620Z,6.05
2023-03-16T02:33:17.103Z,5.88
2023-03-16T02:35:43.731Z,5.84
2023-03-16T02:38:10.464Z,5.67
2023-03-16T02:40:38.761Z,5.75
2023-03-16T02:43:13.475Z,5.74
2023-03-16T02:45:48.994Z,5.60
2023-03-16T02:48:24.764Z,5.37
2023-03-16T02:50:53.586Z,5.36
2023-03-16T02:53:21.198Z,5.32
2023-03-16T02:55:47.978Z,5.33
2023-03-16T02:58:14.889Z,5.14
2023-03-16T03:00:42.658Z,5.20
2023-03-16T03:03:09.620Z,5.26
2023-03-16T03:05:36.988Z,5.23
2023-03-16T03:08:04.357Z,5.26
2023-03-16T03:10:31.200Z,5.32
2023-03-16T03:12:58.082Z,5.28
2023-03-16T03:15:25.069Z,5.17
2023-03-16T03:17:51.837Z,5.22
2023-03-16T03:20:19.723Z,5.09
2023-03-16T03:22:48.782Z,5.12
2023-03-16T03:25:17.245Z,5.09
2023-03-16T03:27:45.015Z,5.09
2023-03-16T03:30:15.991Z,5.06
2023-03-16T03:32:44.206Z,5.05
2023-03-16T03:35:12.926Z,5.02
2023-03-16T03:37:41.103Z,4.99
2023-03-16T03:40:10.346Z,5.01
2023-03-16T03:42:36.941Z,4.96
2023-03-16T03:45:03.920Z,4.88
2023-03-16T03:47:30.856Z,4.96
2023-03-16T03:49:57.416Z,5.01
2023-03-16T03:52:23.924Z,5.01
2023-03-16T03:54:51.524Z,4.85
2023-03-16T03:57:19.401Z,4.70
2023-03-16T03:59:46.867Z,4.82
2023-03-16T04:02:14.110Z,4.82
2023-03-16T04:04:43.008Z,4.81
2023-03-16T04:07:09.964Z,4.66
2023-03-16T04:09:36.581Z,4.66
2023-03-16T04:12:04.967Z,4.66
2023-03-16T04:14:32.513Z,4.67
2023-03-16T04:16:59.463Z,4.52
2023-03-16T04:19:26.477Z,4.53
2023-03-16T04:21:53.150Z,4.60
2023-03-16T04:24:19.875Z,4.60
2023-03-16T04:26:46.482Z,4.56
2023-03-16T04:29:14.609Z,4.54
2023-03-16T04:31:42.496Z,4.53
2023-03-16T04:34:09.621Z,4.51
2023-03-16T04:36:36.152Z,4.54
2023-03-16T04:39:03.031Z,4.40
2023-03-16T04:41:29.826Z,4.59
2023-03-16T04:43:58.576Z,4.59
2023-03-16T04:46:27.469Z,4.60
2023-03-16T04:48:54.548Z,4.64
2023-03-16T04:51:21.609Z,4.74
2023-03-16T04:53:48.301Z,4.62
2023-03-16T04:56:19.809Z,4.60
2023-03-16T04:58:51.107Z,4.50
2023-03-16T05:01:18.452Z,4.62
2023-03-16T05:03:45.107Z,4.69
2023-03-16T05:06:12.954Z,4.63
2023-03-16T05:08:39.582Z,4.66
2023-03-16T05:11:06.298Z,4.68
2023-03-16T05:13:33.243Z,4.70
2023-03-16T05:16:00.351Z,4.77
2023-03-16T05:18:27.134Z,4.78
2023-03-16T05:20:56.065Z,4.74
2023-03-16T05:23:23.572Z,4.69
2023-03-16T05:25:50.530Z,4.64
2023-03-16T05:28:17.384Z,4.69
2023-03-16T05:30:45.350Z,4.63
2023-03-16T05:33:12.519Z,4.68
2023-03-16T05:35:39.277Z,4.64
2023-03-16T05:38:06.209Z,4.73
2023-03-16T05:40:33.255Z,4.73
2023-03-16T05:43:00.696Z,4.87
2023-03-16T05:45:28.089Z,4.87
2023-03-16T05:47:54.923Z,4.96
2023-03-16T05:50:22.405Z,4.95
2023-03-16T05:52:49.196Z,4.89
2023-03-16T05:55:17.577Z,4.83
2023-03-16T05:57:44.817Z,4.78
2023-03-16T06:00:15.716Z,4.79
2023-03-16T06:02:43.432Z,4.70
2023-03-16T06:05:11.226Z,4.79
2023-03-16T06:07:37.961Z,4.76
2023-03-16T06:10:05.564Z,4.75
2023-03-16T06:12:32.634Z,4.88
2023-03-16T06:14:59.208Z,4.97
2023-03-16T06:17:25.888Z,5.18
2023-03-16T06:19:52.498Z,5.13
2023-03-16T06:22:19.374Z,5.10
2023-03-16T06:24:45.923Z,5.16
2023-03-16T06:27:12.834Z,5.17
2023-03-16T06:29:39.462Z,5.23
2023-03-16T06:32:06.134Z,5.45
2023-03-16T06:34:32.764Z,5.79
2023-03-16T06:36:59.353Z,5.69
2023-03-16T06:39:25.930Z,6.46
2023-03-16T06:41:52.524Z,6.76
2023-03-16T06:44:19.327Z,7.13
2023-03-16T06:46:46.103Z,7.38
2023-03-16T06:49:12.746Z,7.39
2023-03-16T06:51:39.296Z,7.22
2023-03-16T06:54:05.853Z,6.91
2023-03-16T06:56:32.479Z,6.94
2023-03-16T06:58:59.218Z,7.06
2023-03-16T07:01:26.062Z,6.90
2023-03-16T07:03:52.666Z,6.79
2023-03-16T07:06:19.344Z,6.81
2023-03-16T07:08:47.357Z,6.81
2023-03-16T07:11:15.005Z,6.61
2023-03-16T07:13:42.161Z,6.62
2023-03-16T07:16:08.756Z,6.59
2023-03-16T07:18:38.029Z,6.54
2023-03-16T07:21:04.841Z,6.53
2023-03-16T07:23:32.398Z,6.62
2023-03-16T07:25:59.035Z,6.61
2023-03-16T07:28:25.635Z,6.74
2023-03-16T07:31:03.265Z,6.83
2023-03-16T07:33:33.164Z,6.90
2023-03-16T07:36:00.239Z,6.83
2023-03-16T07:38:26.823Z,6.98
2023-03-16T07:40:53.432Z,7.03
2023-03-16T07:43:20.113Z,7.14
2023-03-16T07:45:51.418Z,7.37
2023-03-16T07:48:19.172Z,7.48
2023-03-16T07:50:48.128Z,7.81
2023-03-16T07:53:15.718Z,8.25
2023-03-16T07:55:43.100Z,8.60
2023-03-16T07:58:10.858Z,9.11
2023-03-16T08:00:38.268Z,9.75
2023-03-16T08:03:04.999Z,9.97
2023-03-16T08:05:34.430Z,10.34
2023-03-16T08:08:01.836Z,10.83
2023-03-16T08:10:29.328Z,10.74
2023-03-16T08:12:56.112Z,10.56
2023-03-16T08:15:25.154Z,10.45
2023-03-16T08:17:52.696Z,10.16
2023-03-16T08:20:19.714Z,9.91
2023-03-16T08:22:46.675Z,10.11
2023-03-16T08:25:14.976Z,10.14
2023-03-16T08:27:43.035Z,9.98
2023-03-16T08:30:11.900Z,9.96
2023-03-16T08:32:42.293Z,10.31
2023-03-16T08:35:13.535Z,9.92
2023-03-16T08:37:41.559Z,9.98
2023-03-16T08:40:17.058Z,9.75
2023-03-16T08:42:44.922Z,9.58
2023-03-16T08:45:14.438Z,9.62
2023-03-16T08:47:41.574Z,9.71
2023-03-16T08:50:09.337Z,9.72
2023-03-16T08:52:36.786Z,9.23
2023-03-16T08:55:07.159Z,9.22
2023-03-16T08:57:34.416Z,8.91
2023-03-16T09:00:01.426Z,9.00
2023-03-16T09:02:28.172Z,9.00
2023-03-16T09:04:54.903Z,9.07
2023-03-16T09:07:21.988Z,9.37
2023-03-16T09:09:48.618Z,10.00
2023-03-16T09:12:15.277Z,10.57
2023-03-16T09:14:41.992Z,10.67
2023-03-16T09:17:08.580Z,10.19
2023-03-16T09:19:50.493Z,10.02
2023-03-16T09:22:19.903Z,9.77
2023-03-16T09:24:46.910Z,9.63
2023-03-16T09:27:13.582Z,9.63
2023-03-16T09:29:41.167Z,10.08
2023-03-16T09:32:08.700Z,10.51
2023-03-16T09:34:35.417Z,10.90
2023-03-16T09:37:02.635Z,11.22
2023-03-16T09:39:29.227Z,11.22
2023-03-16T09:42:02.667Z,10.82
2023-03-16T09:44:56.836Z,10.81
2023-03-16T09:47:29.133Z,11.27
2023-03-16T09:50:00.387Z,10.76
2023-03-16T09:52:49.211Z,10.72
2023-03-16T09:55:28.408Z,10.53
2023-03-16T09:57:56.161Z,10.32
2023-03-16T10:00:26.387Z,10.28
2023-03-16T10:03:11.793Z,10.13
2023-03-16T10:05:39.559Z,9.84
2023-03-16T10:08:09.102Z,9.58
2023-03-16T10:11:10.877Z,9.70
2023-03-16T10:13:37.489Z,10.00
2023-03-16T10:16:11.166Z,10.22
2023-03-16T10:18:52.378Z,10.36
2023-03-16T10:21:21.272Z,10.56
2023-03-16T10:23:49.901Z,10.68
2023-03-16T10:26:25.975Z,11.13
2023-03-16T10:28:53.071Z,11.33
2023-03-16T10:31:23.144Z,11.42
2023-03-16T10:33:56.538Z,11.57
2023-03-16T10:36:33.619Z,11.18
2023-03-16T10:39:02.184Z,10.79
2023-03-16T10:41:32.968Z,10.80
2023-03-16T10:44:08.569Z,10.82
2023-03-16T10:47:04.931Z,10.75
2023-03-16T10:49:41.906Z,11.15
2023-03-16T10:52:39.917Z,11.64
2023-03-16T10:55:16.072Z,11.89
2023-03-16T10:57:48.643Z,11.99
2023-03-16T11:00:22.251Z,11.68
2023-03-16T11:02:50.502Z,11.40
2023-03-16T11:05:33.445Z,11.24
2023-03-16T11:08:02.006Z,11.53
2023-03-16T11:10:38.081Z,11.36
2023-03-16T11:13:14.686Z,11.33
2023-03-16T11:16:20.022Z,11.46
2023-03-16T11:18:53.258Z,11.57
2023-03-16T11:21:38.785Z,11.34
2023-03-16T11:24:12.025Z,11.32
2023-03-16T11:26:40.837Z,11.16
2023-03-16T11:29:18.863Z,11.11
2023-03-16T11:31:56.253Z,10.85
2023-03-16T11:34:29.014Z,10.64
2023-03-16T11:37:05.487Z,10.83
2023-03-16T11:39:58.533Z,10.59
2023-03-16T11:42:37.470Z,10.66
2023-03-16T11:45:13.183Z,10.84
2023-03-16T11:48:07.636Z,10.72
2023-03-16T11:50:48.145Z,10.62
2023-03-16T11:53:33.223Z,10.44
2023-03-16T11:56:11.832Z,10.47
2023-03-16T11:59:02.209Z,10.44
2023-03-16T12:01:31.488Z,10.73
2023-03-16T12:04:16.782Z,10.46
2023-03-16T12:07:02.166Z,10.09
2023-03-16T12:09:40.573Z,9.91
2023-03-16T12:12:22.245Z,9.79
2023-03-16T12:15:07.185Z,9.82
2023-03-16T12:17:37.787Z,9.67
2023-03-16T12:20:26.981Z,9.55
2023-03-16T12:22:59.533Z,9.59
2023-03-16T12:25:33.180Z,9.54
2023-03-16T12:28:03.153Z,9.65
2023-03-16T12:30:38.588Z,9.44
2023-03-16T12:33:13.910Z,9.35
2023-03-16T12:35:56.744Z,9.41
2023-03-16T12:38:39.822Z,9.29
2023-03-16T12:41:31.474Z,9.35
2023-03-16T12:43:58.208Z,9.34
2023-03-16T12:46:33.707Z,9.14
2023-03-16T12:49:05.244Z,8.81
2023-03-16T12:51:37.537Z,8.65
2023-03-16T12:54:06.219Z,8.48
2023-03-16T12:56:35.992Z,8.50
2023-03-16T12:59:05.777Z,8.51
2023-03-16T13:01:56.905Z,8.62
2023-03-16T13:04:41.607Z,8.77
2023-03-16T13:07:21.672Z,8.54
2023-03-16T13:10:13.836Z,8.58
2023-03-16T13:12:41.968Z,8.45
2023-03-16T13:15:12.042Z,8.39
2023-03-16T13:17:39.274Z,8.47
2023-03-16T13:20:30.761Z,8.49
2023-03-16T13:23:36.581Z,8.64
2023-03-16T13:26:06.336Z,8.63
2023-03-16T13:28:36.728Z,8.53
2023-03-16T13:31:04.994Z,8.57
2023-03-16T13:33:36.772Z,8.46
2023-03-16T13:36:06.420Z,8.44
2023-03-16T13:38:33.310Z,8.04
2023-03-16T13:41:06.042Z,8.05
2023-03-16T13:43:35.905Z,8.15
2023-03-16T13:46:14.415Z,8.20
2023-03-16T13:48:41.835Z,8.06
2023-03-16T13:51:15.186Z,8.06
2023-03-16T13:53:43.372Z,8.02
2023-03-16T13:56:15.090Z,7.86
2023-03-16T13:58:45.650Z,7.78
2023-03-16T14:01:38.900Z,7.74
2023-03-16T14:04:13.922Z,7.70
2023-03-16T14:06:41.492Z,7.48
2023-03-16T14:09:21.723Z,7.52
2023-03-16T14:11:48.844Z,7.35
2023-03-16T14:14:23.705Z,7.33
2023-03-16T14:16:51.337Z,7.26
2023-03-16T14:19:25.919Z,7.36
2023-03-16T14:21:52.594Z,7.18
2023-03-16T14:24:35.536Z,7.19
2023-03-16T14:27:17.115Z,7.18
2023-03-16T14:29:44.471Z,7.15
2023-03-16T14:32:20.520Z,7.00
2023-03-16T14:34:50.662Z,6.95
2023-03-16T14:37:19.347Z,6.83
2023-03-16T14:39:58.120Z,6.74
2023-03-16T14:42:29.884Z,6.63
2023-03-16T14:44:59.941Z,6.69
2023-03-16T14:47:31.170Z,6.65
2023-03-16T14:50:10.187Z,6.72
2023-03-16T14:52:37.211Z,6.72
2023-03-16T14:55:12.999Z,6.96
2023-03-16T14:57:41.793Z,7.02
2023-03-16T15:00:12.170Z,7.06
2023-03-16T15:02:42.132Z,7.00
2023-03-16T15:05:15.734Z,6.95
2023-03-16T15:07:45.414Z,6.87
2023-03-16T15:10:15.496Z,6.91
2023-03-16T15:12:50.506Z,6.78
2023-03-16T15:15:19.835Z,6.55
2023-03-16T15:17:47.636Z,6.58
2023-03-16T15:20:16.899Z,6.56
2023-03-16T15:22:45.053Z,6.71
2023-03-16T15:25:37.338Z,6.63
2023-03-16T15:28:11.600Z,6.77
2023-03-16T15:30:39.105Z,6.74
2023-03-16T15:33:06.143Z,6.81
2023-03-16T15:35:32.965Z,6.79
2023-03-16T15:38:02.998Z,6.68
2023-03-16T15:40:31.509Z,6.75
2023-03-16T15:42:58.326Z,6.74
2023-03-16T15:45:25.450Z,6.64
2023-03-16T15:47:53.678Z,6.59
2023-03-16T15:50:22.255Z,6.48
2023-03-16T15:52:58.139Z,6.37
2023-03-16T15:55:33.247Z,6.25
2023-03-16T15:58:02.472Z,6.07
2023-03-16T16:00:37.915Z,6.15
2023-03-16T16:03:06.514Z,6.12
2023-03-16T16:05:33.921Z,6.11
2023-03-16T16:08:00.629Z,6.04
2023-03-16T16:10:28.697Z,5.96
2023-03-16T16:12:56.984Z,5.82
2023-03-16T16:15:23.652Z,5.80
2023-03-16T16:18:08.563Z,5.71
2023-03-16T16:20:37.042Z,5.65
2023-03-16T16:23:03.616Z,5.57
2023-03-16T16:25:40.361Z,5.64
2023-03-16T16:28:19.073Z,5.68
2023-03-16T16:30:46.276Z,5.62
2023-03-16T16:33:39.807Z,5.65
2023-03-16T16:36:13.555Z,5.55
2023-03-16T16:38:40.174Z,5.56
2023-03-16T16:41:09.272Z,5.58
2023-03-16T16:43:41.821Z,5.64
2023-03-16T16:46:21.145Z,5.58
2023-03-16T16:48:54.124Z,5.49
2023-03-16T16:51:24.703Z,5.62
2023-03-16T16:53:56.918Z,5.53
2023-03-16T16:56:32.582Z,5.43
2023-03-16T16:59:14.047Z,5.38
2023-03-16T17:01:40.787Z,5.29
2023-03-16T17:04:17.466Z,5.17
2023-03-16T17:06:45.807Z,5.14
2023-03-16T17:09:14.324Z,5.11
2023-03-16T17:11:42.480Z,4.98
2023-03-16T17:14:14.834Z,4.89
2023-03-16T17:16:41.769Z,4.87
2023-03-16T17:19:21.406Z,4.90
2023-03-16T17:21:48.765Z,5.00
2023-03-16T17:24:15.604Z,5.02
2023-03-16T17:26:48.865Z,4.78
2023-03-16T17:29:23.064Z,4.98
2023-03-16T17:31:50.615Z,4.97
2023-03-16T17:34:23.269Z,4.92
2023-03-16T17:36:51.275Z,5.00
2023-03-16T17:39:29.522Z,5.04
2023-03-16T17:42:06.217Z,5.05
2023-03-16T17:44:36.095Z,5.10
2023-03-16T17:47:02.980Z,5.13
2023-03-16T17:49:30.844Z,5.10
2023-03-16T17:51:57.864Z,5.15
2023-03-16T17:54:24.644Z,5.27
2023-03-16T17:56:54.191Z,5.23
2023-03-16T17:59:22.195Z,5.24
2023-03-16T18:01:49.414Z,5.19
2023-03-16T18:04:21.237Z,5.28
2023-03-16T18:06:49.246Z,5.28
2023-03-16T18:09:17.958Z,5.23
2023-03-16T18:11:47.680Z,5.23
2023-03-16T18:14:35.587Z,5.14
2023-03-16T18:17:07.816Z,5.15
2023-03-16T18:19:34.448Z,5.22
2023-03-16T18:22:01.046Z,5.21
2023-03-16T18:24:28.281Z,5.11
2023-03-16T18:26:55.438Z,5.15
2023-03-16T18:29:22.469Z,5.13
2023-03-16T18:31:56.997Z,5.14
2023-03-16T18:34:26.231Z,5.12
2023-03-16T18:36:55.836Z,5.09
2023-03-16T18:39:22.628Z,4.94
2023-03-16T18:41:49.913Z,5.04
2023-03-16T18:44:18.532Z,5.02
2023-03-16T18:46:46.315Z,4.91
2023-03-16T18:49:12.841Z,4.79
2023-03-16T18:51:39.464Z,4.83
2023-03-16T18:54:25.762Z,4.84
2023-03-16T18:56:53.913Z,4.89
2023-03-16T18:59:21.056Z,4.89
2023-03-16T19:01:48.471Z,4.95
2023-03-16T19:04:45.140Z,4.97
2023-03-16T19:07:24.298Z,4.94
2023-03-16T19:09:51.582Z,5.02
2023-03-16T19:12:20.680Z,5.01
2023-03-16T19:14:47.748Z,4.97
2023-03-16T19:17:14.370Z,5.08
2023-03-16T19:19:41.057Z,5.10
2023-03-16T19:22:15.792Z,5.13
2023-03-16T19:24:54.089Z,5.09
2023-03-16T19:27:33.025Z,5.05
2023-03-16T19:29:59.675Z,4.99
2023-03-16T19:32:26.395Z,5.18
2023-03-16T19:34:54.070Z,5.15
2023-03-16T19:37:23.855Z,5.14
2023-03-16T19:39:50.555Z,5.18
2023-03-16T19:42:33.700Z,5.21
2023-03-16T19:45:00.986Z,5.24
2023-03-16T19:47:30.990Z,5.12
2023-03-16T19:49:59.023Z,5.17
2023-03-16T19:52:28.195Z,5.16
2023-03-16T19:54:57.471Z,5.15
2023-03-16T19:57:24.253Z,5.24
2023-03-16T19:59:55.628Z,5.16
2023-03-16T20:02:43.218Z,4.99
2023-03-16T20:05:17.616Z,4.85
2023-03-16T20:07:44.155Z,4.86
2023-03-16T20:10:17.088Z,4.84
2023-03-16T20:12:44.094Z,4.85
2023-03-16T20:15:21.177Z,4.83
2023-03-16T20:17:48.467Z,4.72
2023-03-16T20:20:25.361Z,4.78
2023-03-16T20:22:53.776Z,4.69
2023-03-16T20:25:21.216Z,4.83
2023-03-16T20:27:54.016Z,4.83
2023-03-16T20:30:20.829Z,4.94
2023-03-16T20:32:47.848Z,4.96
2023-03-16T20:35:19.357Z,4.96
2023-03-16T20:37:46.383Z,4.93
2023-03-16T20:40:13.580Z,4.92
2023-03-16T20:42:40.636Z,4.92
2023-03-16T20:45:19.525Z,5.07
2023-03-16T20:47:46.273Z,5.06
2023-03-16T20:50:22.791Z,5.02
2023-03-16T20:52:50.560Z,5.03
2023-03-16T20:55:19.797Z,4.95
2023-03-16T20:57:47.766Z,4.91
2023-03-16T21:00:23.200Z,4.95
2023-03-16T21:02:49.852Z,4.96
2023-03-16T21:05:16.698Z,5.02
2023-03-16T21:07:43.264Z,5.09
2023-03-16T21:10:15.154Z,4.99
2023-03-16T21:12:46.011Z,4.97
2023-03-16T21:15:33.405Z,4.86
2023-03-16T21:18:06.562Z,4.58
2023-03-16T21:20:35.662Z,4.58
2023-03-16T21:23:02.618Z,4.69
2023-03-16T21:25:36.885Z,4.50
2023-03-16T21:28:05.346Z,4.43
2023-03-16T21:30:42.905Z,4.47
2023-03-16T21:33:35.754Z,4.41
2023-03-16T21:36:04.330Z,4.45
2023-03-16T21:38:32.321Z,4.40
2023-03-16T21:40:59.806Z,4.48
2023-03-16T21:43:27.449Z,4.57
2023-03-16T21:45:55.214Z,4.56
2023-03-16T21:48:24.879Z,4.50
2023-03-16T21:50:53.092Z,4.46
2023-03-16T21:53:31.819Z,4.49
2023-03-16T21:55:58.820Z,4.58
2023-03-16T21:58:26.090Z,4.38
2023-03-16T22:00:54.592Z,4.44
2023-03-16T22:03:24.055Z,4.31
2023-03-16T22:05:51.212Z,4.37
2023-03-16T22:08:24.180Z,4.36
2023-03-16T22:10:51.470Z,4.41
2023-03-16T22:13:19.283Z,4.36
2023-03-16T22:15:48.415Z,4.37
2023-03-16T22:18:34.688Z,4.32
2023-03-16T22:21:11.105Z,4.22
2023-03-16T22:23:37.751Z,4.28
2023-03-16T22:26:06.257Z,4.33
2023-03-16T22:28:34.215Z,4.30
2023-03-16T22:31:04.370Z,4.38
2023-03-16T22:33:35.016Z,4.37
2023-03-16T22:36:08.341Z,4.36
2023-03-16T22:38:36.425Z,4.42
2023-03-16T22:41:03.372Z,4.33
2023-03-16T22:43:34.686Z,4.29
2023-03-16T22:46:01.568Z,4.25
2023-03-16T22:48:31.213Z,4.25
2023-03-16T22:51:02.475Z,4.15
2023-03-16T22:53:41.512Z,4.13
2023-03-16T22:56:10.594Z,4.02
2023-03-16T22:58:49.903Z,3.89
2023-03-16T23:01:23.530Z,3.91
2023-03-16T23:03:52.952Z,3.95
2023-03-16T23:06:22.846Z,3.92
2023-03-16T23:08:49.970Z,3.94
2023-03-16T23:11:21.661Z,4.01
2023-03-16T23:13:48.914Z,4.01
2023-03-16T23:16:25.092Z,3.99
2023-03-16T23:18:52.477Z,3.82
2023-03-16T23:21:20.695Z,3.87
2023-03-16T23:23:57.153Z,3.81
2023-03-16T23:26:29.482Z,3.81
2023-03-16T23:28:57.045Z,3.83
2023-03-16T23:31:26.195Z,3.78
2023-03-16T23:33:52.995Z,3.68
2023-03-16T23:36:21.825Z,3.77
2023-03-16T23:38:49.479Z,3.83
2023-03-16T23:41:20.474Z,3.85
2023-03-16T23:43:48.478Z,3.83
2023-03-16T23:46:18.715Z,3.89
2023-03-16T23:48:47.402Z,3.88
2023-03-16T23:51:26.499Z,3.84
2023-03-16T23:53:53.375Z,3.84
2023-03-16T23:56:20.448Z,3.84
2023-03-16T23:58:47.018Z,3.81
